createdAt,value
2023-02-19T00:01:22.179Z,68.04
2023-02-19T00:03:52.575Z,68.34
2023-02-19T00:06:15.214Z,68.41
2023-02-19T00:08:38.946Z,68.56
2023-02-19T00:11:22.691Z,68.71
2023-02-19T00:13:47.788Z,68.94
2023-02-19T00:16:18.574Z,68.78
2023-02-19T00:18:42.085Z,68.99
2023-02-19T00:21:05.094Z,68.95
2023-02-19T00:23:28.157Z,69.06
2023-02-19T00:25:50.793Z,68.65
2023-02-19T00:28:13.399Z,68.09
2023-02-19T00:30:36.293Z,67.96
2023-02-19T00:32:59.144Z,67.11
2023-02-19T00:35:22.044Z,66.82
2023-02-19T00:37:44.710Z,67.16
2023-02-19T00:40:07.706Z,67.36
2023-02-19T00:42:30.419Z,67.60
2023-02-19T00:44:52.977Z,68.03
2023-02-19T00:47:16.002Z,68.06
2023-02-19T00:49:38.697Z,68.22
2023-02-19T00:52:01.367Z,68.56
2023-02-19T00:54:25.034Z,69.03
2023-02-19T00:56:47.680Z,69.30
2023-02-19T00:59:11.147Z,69.39
2023-02-19T01:01:34.079Z,69.03
2023-02-19T01:03:56.829Z,68.87
2023-02-19T01:06:20.515Z,68.67
2023-02-19T01:08:44.168Z,68.54
2023-02-19T01:11:08.349Z,68.61
2023-02-19T01:13:31.563Z,68.58
2023-02-19T01:15:55.028Z,68.77
2023-02-19T01:18:17.761Z,68.85
2023-02-19T01:20:44.936Z,69.10
2023-02-19T01:23:07.915Z,69.19
2023-02-19T01:25:30.796Z,69.08
2023-02-19T01:27:53.908Z,69.06
2023-02-19T01:30:16.999Z,68.64
2023-02-19T01:32:40.900Z,68.66
2023-02-19T01:35:04.303Z,68.37
2023-02-19T01:37:27.678Z,68.65
2023-02-19T01:39:50.501Z,69.04
2023-02-19T01:42:17.035Z,69.31
2023-02-19T01:44:39.626Z,69.49
2023-02-19T01:47:02.277Z,69.86
2023-02-19T01:49:29.116Z,70.08
2023-02-19T01:52:34.297Z,70.58
2023-02-19T01:54:57.726Z,70.70
2023-02-19T01:57:31.310Z,70.89
2023-02-19T01:59:58.629Z,71.12
2023-02-19T02:02:25.096Z,71.16
2023-02-19T02:04:48.630Z,71.60
2023-02-19T02:07:30.467Z,71.76
2023-02-19T02:10:12.408Z,71.91
2023-02-19T02:12:35.068Z,71.61
2023-02-19T02:14:57.714Z,71.50
2023-02-19T02:17:26.603Z,71.58
2023-02-19T02:20:16.975Z,72.03
2023-02-19T02:22:48.419Z,72.35
2023-02-19T02:25:32.961Z,72.22
2023-02-19T02:28:14.040Z,71.97
2023-02-19T02:30:43.890Z,72.08
2023-02-19T02:33:24.777Z,72.04
2023-02-19T02:35:55.992Z,72.09
2023-02-19T02:38:23.796Z,72.02
2023-02-19T02:40:47.948Z,71.63
2023-02-19T02:43:12.724Z,70.95
2023-02-19T02:45:35.767Z,70.09
2023-02-19T02:48:22.755Z,70.44
2023-02-19T02:50:54.975Z,71.01
2023-02-19T02:53:46.457Z,71.08
2023-02-19T02:56:11.143Z,70.86
2023-02-19T02:58:34.721Z,70.97
2023-02-19T03:01:49.098Z,71.31
2023-02-19T03:04:30.576Z,71.47
2023-02-19T03:06:55.490Z,71.40
2023-02-19T03:09:32.746Z,70.97
2023-02-19T03:12:16.042Z,70.81
2023-02-19T03:15:02.398Z,70.83
2023-02-19T03:17:54.842Z,71.04
2023-02-19T03:20:21.525Z,71.13
2023-02-19T03:22:45.738Z,71.60
2023-02-19T03:25:39.451Z,71.84
2023-02-19T03:28:06.721Z,72.04
2023-02-19T03:30:33.594Z,72.34
2023-02-19T03:33:02.444Z,72.62
2023-02-19T03:35:28.843Z,72.59
2023-02-19T03:37:57.524Z,72.52
2023-02-19T03:40:23.102Z,72.48
2023-02-19T03:42:48.662Z,72.41
2023-02-19T03:45:27.959Z,72.78
2023-02-19T03:48:12.063Z,72.87
2023-02-19T03:50:45.167Z,73.15
2023-02-19T03:53:48.437Z,73.72
2023-02-19T03:56:19.396Z,73.96
2023-02-19T03:58:55.508Z,74.20
2023-02-19T04:01:38.610Z,74.29
2023-02-19T04:04:13.894Z,74.49
2023-02-19T04:06:38.751Z,74.46
2023-02-19T04:09:04.296Z,74.18
2023-02-19T04:11:30.596Z,74.42
2023-02-19T04:14:03.538Z,74.74
2023-02-19T04:16:28.926Z,74.59
2023-02-19T04:18:54.978Z,74.69
2023-02-19T04:21:20.619Z,74.82
2023-02-19T04:23:45.659Z,75.05
2023-02-19T04:26:09.148Z,75.49
2023-02-19T04:28:31.858Z,75.92
2023-02-19T04:30:54.594Z,76.22
2023-02-19T04:33:17.313Z,76.84
2023-02-19T04:35:39.961Z,77.20
2023-02-19T04:38:02.795Z,77.37
2023-02-19T04:40:25.463Z,77.10
2023-02-19T04:42:47.954Z,77.00
2023-02-19T04:45:10.497Z,77.67
2023-02-19T04:47:33.270Z,77.29
2023-02-19T04:49:55.882Z,77.39
2023-02-19T04:52:18.536Z,77.85
2023-02-19T04:54:41.108Z,78.30
2023-02-19T04:57:03.826Z,78.95
2023-02-19T04:59:27.607Z,78.97
2023-02-19T05:01:51.379Z,79.60
2023-02-19T05:04:13.950Z,80.23
2023-02-19T05:06:36.555Z,80.07
2023-02-19T05:08:59.274Z,80.61
2023-02-19T05:11:23.818Z,80.33
2023-02-19T05:13:46.426Z,80.71
2023-02-19T05:16:14.051Z,80.81
2023-02-19T05:18:36.896Z,81.10
2023-02-19T05:21:00.138Z,81.56
2023-02-19T05:23:22.783Z,81.80
2023-02-19T05:25:45.419Z,81.77
2023-02-19T05:28:19.775Z,82.49
2023-02-19T05:30:42.827Z,82.55
2023-02-19T05:33:05.405Z,82.17
2023-02-19T05:35:28.203Z,82.07
2023-02-19T05:37:50.847Z,81.87
2023-02-19T05:40:13.727Z,81.73
2023-02-19T05:42:36.526Z,81.22
2023-02-19T05:44:59.096Z,81.35
2023-02-19T05:47:21.699Z,81.08
2023-02-19T05:49:45.370Z,81.03
2023-02-19T05:52:07.969Z,80.79
2023-02-19T05:54:31.515Z,80.82
2023-02-19T05:56:54.143Z,80.70
2023-02-19T05:59:21.702Z,80.33
2023-02-19T06:01:45.329Z,80.74
2023-02-19T06:04:11.222Z,80.94
2023-02-19T06:06:33.980Z,80.42
2023-02-19T06:08:57.239Z,80.33
2023-02-19T06:11:20.874Z,80.11
2023-02-19T06:13:43.952Z,80.03
2023-02-19T06:16:07.938Z,79.98
2023-02-19T06:18:30.589Z,80.25
2023-02-19T06:20:53.318Z,80.07
2023-02-19T06:23:15.966Z,80.06
2023-02-19T06:25:38.502Z,79.84
2023-02-19T06:28:01.149Z,80.09
2023-02-19T06:30:23.918Z,80.26
2023-02-19T06:32:46.619Z,80.02
2023-02-19T06:35:09.264Z,79.91
2023-02-19T06:37:31.875Z,79.71
2023-02-19T06:39:54.516Z,79.55
2023-02-19T06:42:17.230Z,79.45
2023-02-19T06:44:39.724Z,79.12
2023-02-19T06:47:02.379Z,79.16
2023-02-19T06:49:24.978Z,79.03
2023-02-19T06:51:48.202Z,78.72
2023-02-19T06:54:10.982Z,78.23
2023-02-19T06:56:35.978Z,78.72
2023-02-19T06:59:01.410Z,78.54
2023-02-19T07:01:24.453Z,78.93
2023-02-19T07:03:47.184Z,78.51
2023-02-19T07:06:10.332Z,78.49
2023-02-19T07:08:33.296Z,78.11
2023-02-19T07:10:57.487Z,77.78
2023-02-19T07:13:20.080Z,77.74
2023-02-19T07:15:43.050Z,77.26
2023-02-19T07:18:07.650Z,76.95
2023-02-19T07:20:30.255Z,76.89
2023-02-19T07:22:52.917Z,77.01
2023-02-19T07:25:15.687Z,76.35
2023-02-19T07:27:38.254Z,75.90
2023-02-19T07:30:02.242Z,75.91
2023-02-19T07:32:25.340Z,75.84
2023-02-19T07:34:47.992Z,75.71
2023-02-19T07:37:31.320Z,75.74
2023-02-19T07:39:54.155Z,75.52
2023-02-19T07:42:17.135Z,75.78
2023-02-19T07:44:40.013Z,75.88
2023-02-19T07:47:02.606Z,75.89
2023-02-19T07:49:25.303Z,76.52
2023-02-19T07:51:48.091Z,78.62
2023-02-19T07:54:11.542Z,79.89
2023-02-19T07:56:34.123Z,80.79
2023-02-19T07:58:57.261Z,81.59
2023-02-19T08:01:42.191Z,82.15
2023-02-19T08:04:04.965Z,82.38
2023-02-19T08:06:27.707Z,82.59
2023-02-19T08:08:50.281Z,82.36
2023-02-19T08:11:31.782Z,83.07
2023-02-19T08:13:54.524Z,83.75
2023-02-19T08:16:29.625Z,84.02
2023-02-19T08:18:59.850Z,84.38
2023-02-19T08:21:22.587Z,84.24
2023-02-19T08:23:46.320Z,84.44
2023-02-19T08:26:09.933Z,84.81
2023-02-19T08:28:33.362Z,84.30
2023-02-19T08:31:00.983Z,84.83
2023-02-19T08:33:23.719Z,84.19
2023-02-19T08:35:47.086Z,84.46
2023-02-19T08:38:11.232Z,84.16
2023-02-19T08:40:34.430Z,83.98
2023-02-19T08:43:09.552Z,84.26
2023-02-19T08:45:33.013Z,83.67
2023-02-19T08:47:55.656Z,83.61
2023-02-19T08:50:18.582Z,83.48
2023-02-19T08:52:41.162Z,83.00
2023-02-19T08:55:05.683Z,82.94
2023-02-19T08:57:29.295Z,83.07
2023-02-19T08:59:51.886Z,82.65
2023-02-19T09:02:14.572Z,82.20
2023-02-19T09:04:37.847Z,82.12
2023-02-19T09:07:00.663Z,82.53
2023-02-19T09:09:23.543Z,82.09
2023-02-19T09:11:47.889Z,81.90
2023-02-19T09:14:11.901Z,82.15
2023-02-19T09:16:36.738Z,82.11
2023-02-19T09:18:59.569Z,82.23
2023-02-19T09:21:22.199Z,81.75
2023-02-19T09:23:44.950Z,82.50
2023-02-19T09:26:10.137Z,81.93
2023-02-19T09:28:33.040Z,81.86
2023-02-19T09:30:55.989Z,81.52
2023-02-19T09:33:18.715Z,82.31
2023-02-19T09:35:41.392Z,82.50
2023-02-19T09:38:04.014Z,82.44
2023-02-19T09:40:26.827Z,82.04
2023-02-19T09:42:50.891Z,82.39
2023-02-19T09:45:21.837Z,81.60
2023-02-19T09:47:44.515Z,82.10
2023-02-19T09:50:09.371Z,82.72
2023-02-19T09:52:40.573Z,82.37
2023-02-19T09:55:14.589Z,82.80
2023-02-19T09:57:37.547Z,82.31
2023-02-19T10:00:21.280Z,82.25
2023-02-19T10:02:43.971Z,82.68
2023-02-19T10:05:16.985Z,83.02
2023-02-19T10:07:46.135Z,82.87
2023-02-19T10:10:14.548Z,82.20
2023-02-19T10:12:37.249Z,81.41
2023-02-19T10:15:09.778Z,81.45
2023-02-19T10:17:34.701Z,80.71
2023-02-19T10:19:58.352Z,80.09
2023-02-19T10:22:21.186Z,79.30
2023-02-19T10:25:24.982Z,78.63
2023-02-19T10:27:47.823Z,79.05
2023-02-19T10:30:32.004Z,77.72
2023-02-19T10:33:02.547Z,77.03
2023-02-19T10:35:25.139Z,75.96
2023-02-19T10:37:51.185Z,75.86
2023-02-19T10:40:24.914Z,75.62
2023-02-19T10:42:50.190Z,76.51
2023-02-19T10:45:21.696Z,76.48
2023-02-19T10:47:46.900Z,76.45
2023-02-19T10:50:25.530Z,76.82
2023-02-19T10:52:54.414Z,76.54
2023-02-19T10:55:28.428Z,76.55
2023-02-19T10:57:51.429Z,77.45
2023-02-19T11:00:16.745Z,77.00
2023-02-19T11:02:39.926Z,76.15
2023-02-19T11:05:03.219Z,75.64
2023-02-19T11:07:25.971Z,75.35
2023-02-19T11:09:53.809Z,74.80
2023-02-19T11:12:28.430Z,73.50
2023-02-19T11:14:51.595Z,74.01
2023-02-19T11:17:29.209Z,74.58
2023-02-19T11:20:14.197Z,74.55
2023-02-19T11:22:40.182Z,75.16
2023-02-19T11:25:25.645Z,74.99
2023-02-19T11:28:02.630Z,73.80
2023-02-19T11:30:33.298Z,73.10
2023-02-19T11:33:13.246Z,71.08
2023-02-19T11:35:36.013Z,71.58
2023-02-19T11:38:01.548Z,70.00
2023-02-19T11:40:40.531Z,69.00
2023-02-19T11:43:36.575Z,68.42
2023-02-19T11:46:30.465Z,68.70
2023-02-19T11:49:01.530Z,69.68
2023-02-19T11:51:34.291Z,68.62
2023-02-19T11:54:28.347Z,65.69
2023-02-19T11:57:20.548Z,65.30
2023-02-19T12:00:10.272Z,65.28
2023-02-19T12:02:50.808Z,65.40
2023-02-19T12:05:38.228Z,63.71
2023-02-19T12:08:39.132Z,62.96
2023-02-19T12:11:37.901Z,62.31
2023-02-19T12:14:38.976Z,62.38
2023-02-19T12:17:10.348Z,62.90
2023-02-19T12:19:40.419Z,62.70
2023-02-19T12:22:25.117Z,62.64
2023-02-19T12:24:48.484Z,63.38
2023-02-19T12:27:31.674Z,62.59
2023-02-19T12:30:19.720Z,62.11
2023-02-19T12:33:02.642Z,61.96
2023-02-19T12:35:45.234Z,60.95
2023-02-19T12:38:28.555Z,61.85
2023-02-19T12:41:13.259Z,60.40
2023-02-19T12:43:40.196Z,61.22
2023-02-19T12:46:15.339Z,60.24
2023-02-19T12:48:48.984Z,60.94
2023-02-19T12:51:50.701Z,60.67
2023-02-19T12:54:36.092Z,59.46
2023-02-19T12:57:03.533Z,59.14
2023-02-19T12:59:50.797Z,59.58
2023-02-19T13:02:26.761Z,58.59
2023-02-19T13:05:19.293Z,58.50
2023-02-19T13:08:12.712Z,59.38
2023-02-19T13:10:54.911Z,59.75
2023-02-19T13:13:34.563Z,59.72
2023-02-19T13:16:04.023Z,59.75
2023-02-19T13:18:32.672Z,59.53
2023-02-19T13:20:56.498Z,59.49
2023-02-19T13:23:37.695Z,58.86
2023-02-19T13:26:13.397Z,58.41
2023-02-19T13:28:42.965Z,58.47
2023-02-19T13:31:11.907Z,59.04
2023-02-19T13:33:54.055Z,59.16
2023-02-19T13:36:36.139Z,58.72
2023-02-19T13:38:59.779Z,60.02
2023-02-19T13:41:29.976Z,58.95
2023-02-19T13:43:59.566Z,59.46
2023-02-19T13:46:24.718Z,59.24
2023-02-19T13:48:47.614Z,59.47
2023-02-19T13:51:17.155Z,59.63
2023-02-19T13:53:44.661Z,58.87
2023-02-19T13:56:34.929Z,57.10
2023-02-19T13:59:01.581Z,56.03
2023-02-19T14:01:49.610Z,55.81
2023-02-19T14:04:48.547Z,55.40
2023-02-19T14:07:11.358Z,55.92
2023-02-19T14:09:46.129Z,58.52
2023-02-19T14:12:14.389Z,66.93
2023-02-19T14:14:55.520Z,70.99
2023-02-19T14:17:36.418Z,77.73
2023-02-19T14:20:17.388Z,80.43
2023-02-19T14:22:46.328Z,83.94
2023-02-19T14:25:24.525Z,85.25
2023-02-19T14:27:48.210Z,86.30
2023-02-19T14:30:13.597Z,86.22
2023-02-19T14:32:36.681Z,86.78
2023-02-19T14:34:59.539Z,87.06
2023-02-19T14:37:23.328Z,87.50
2023-02-19T14:39:47.098Z,86.93
2023-02-19T14:42:33.586Z,86.22
2023-02-19T14:45:00.147Z,85.91
2023-02-19T14:47:26.026Z,86.11
2023-02-19T14:50:08.998Z,86.32
2023-02-19T14:52:43.526Z,86.05
2023-02-19T14:55:06.220Z,85.92
2023-02-19T14:57:47.403Z,85.97
2023-02-19T15:00:38.168Z,85.96
2023-02-19T15:03:02.718Z,86.19
2023-02-19T15:05:28.123Z,85.81
2023-02-19T15:07:54.280Z,85.28
2023-02-19T15:10:18.905Z,85.01
2023-02-19T15:13:01.309Z,84.81
2023-02-19T15:15:29.280Z,84.72
2023-02-19T15:17:54.386Z,84.94
2023-02-19T15:20:20.557Z,85.27
2023-02-19T15:22:43.509Z,84.94
2023-02-19T15:25:07.418Z,84.89
2023-02-19T15:27:30.799Z,85.13
2023-02-19T15:29:54.922Z,85.58
2023-02-19T15:32:22.728Z,85.83
2023-02-19T15:34:57.628Z,85.68
2023-02-19T15:37:20.473Z,85.85
2023-02-19T15:39:48.199Z,85.95
2023-02-19T15:42:22.827Z,86.14
2023-02-19T15:44:57.654Z,86.08
2023-02-19T15:47:28.170Z,85.96
2023-02-19T15:50:07.862Z,85.87
2023-02-19T15:53:00.831Z,85.97
2023-02-19T15:55:35.757Z,86.08
2023-02-19T15:58:05.466Z,85.72
2023-02-19T16:00:45.400Z,85.99
2023-02-19T16:03:17.884Z,85.67
2023-02-19T16:05:41.880Z,85.53
2023-02-19T16:08:20.266Z,85.24
2023-02-19T16:10:54.303Z,84.62
2023-02-19T16:13:24.197Z,83.67
2023-02-19T16:16:00.618Z,83.14
2023-02-19T16:18:23.779Z,82.97
2023-02-19T16:20:47.784Z,82.83
2023-02-19T16:23:18.782Z,83.68
2023-02-19T16:25:44.567Z,83.96
2023-02-19T16:28:22.344Z,83.50
2023-02-19T16:30:45.590Z,83.73
2023-02-19T16:33:35.829Z,84.20
2023-02-19T16:36:15.521Z,84.42
2023-02-19T16:38:38.520Z,85.01
2023-02-19T16:41:11.619Z,85.15
2023-02-19T16:43:43.100Z,85.71
2023-02-19T16:46:09.509Z,86.33
2023-02-19T16:48:32.411Z,86.93
2023-02-19T16:50:56.023Z,87.32
2023-02-19T16:53:24.848Z,87.73
2023-02-19T16:55:48.680Z,87.90
2023-02-19T16:58:11.514Z,87.86
2023-02-19T17:00:34.172Z,87.11
2023-02-19T17:02:59.668Z,86.62
2023-02-19T17:05:23.640Z,86.90
2023-02-19T17:07:46.616Z,86.52
2023-02-19T17:10:23.010Z,86.05
2023-02-19T17:12:46.061Z,85.60
2023-02-19T17:15:09.179Z,84.86
2023-02-19T17:17:32.774Z,84.81
2023-02-19T17:19:56.592Z,83.53
2023-02-19T17:22:19.180Z,84.19
2023-02-19T17:24:43.205Z,82.89
2023-02-19T17:27:06.208Z,83.05
2023-02-19T17:29:33.004Z,81.57
2023-02-19T17:31:55.707Z,80.18
2023-02-19T17:34:18.733Z,80.79
2023-02-19T17:36:44.098Z,79.79
2023-02-19T17:39:15.101Z,78.85
2023-02-19T17:41:38.190Z,78.86
2023-02-19T17:44:01.004Z,79.37
2023-02-19T17:46:25.896Z,78.78
2023-02-19T17:48:48.637Z,78.71
2023-02-19T17:51:12.658Z,79.80
2023-02-19T17:53:35.765Z,80.71
2023-02-19T17:55:58.675Z,80.43
2023-02-19T17:58:21.348Z,80.32
2023-02-19T18:00:44.318Z,80.58
2023-02-19T18:03:10.567Z,80.83
2023-02-19T18:05:33.570Z,81.32
2023-02-19T18:07:56.464Z,81.63
2023-02-19T18:10:21.102Z,81.47
2023-02-19T18:12:44.493Z,81.82
2023-02-19T18:15:08.742Z,81.76
2023-02-19T18:17:31.647Z,81.66
2023-02-19T18:19:55.116Z,81.45
2023-02-19T18:22:18.590Z,81.79
2023-02-19T18:24:52.169Z,82.15
2023-02-19T18:27:16.075Z,82.61
2023-02-19T18:29:39.460Z,83.27
2023-02-19T18:32:02.675Z,83.48
2023-02-19T18:34:25.630Z,84.01
2023-02-19T18:36:49.635Z,84.26
2023-02-19T18:39:12.671Z,84.52
2023-02-19T18:41:35.716Z,84.45
2023-02-19T18:43:59.826Z,83.69
2023-02-19T18:46:22.581Z,84.04
2023-02-19T18:48:45.565Z,83.63
2023-02-19T18:51:12.328Z,83.60
2023-02-19T18:53:35.735Z,82.78
2023-02-19T18:56:00.360Z,82.74
2023-02-19T18:58:25.648Z,83.00
2023-02-19T19:00:48.617Z,83.20
2023-02-19T19:03:11.904Z,83.25
2023-02-19T19:05:35.014Z,83.59
2023-02-19T19:08:01.940Z,83.25
2023-02-19T19:10:25.750Z,83.38
2023-02-19T19:12:48.984Z,83.32
2023-02-19T19:15:11.930Z,83.46
2023-02-19T19:17:34.953Z,83.43
2023-02-19T19:19:58.321Z,83.22
2023-02-19T19:22:22.881Z,83.18
2023-02-19T19:24:46.414Z,83.45
2023-02-19T19:27:09.286Z,83.33
2023-02-19T19:29:32.683Z,83.28
2023-02-19T19:31:56.744Z,83.53
2023-02-19T19:34:19.534Z,84.13
2023-02-19T19:36:42.530Z,84.12
2023-02-19T19:39:06.003Z,84.37
2023-02-19T19:41:29.248Z,84.33
2023-02-19T19:43:52.226Z,84.32
2023-02-19T19:46:19.979Z,84.07
2023-02-19T19:48:43.533Z,84.03
2023-02-19T19:51:06.502Z,83.95
2023-02-19T19:53:29.506Z,83.73
2023-02-19T19:55:52.565Z,83.91
2023-02-19T19:58:16.891Z,83.99
2023-02-19T20:00:40.966Z,83.43
2023-02-19T20:03:03.951Z,83.19
2023-02-19T20:05:26.950Z,83.16
2023-02-19T20:07:50.253Z,83.49
2023-02-19T20:10:14.488Z,83.00
2023-02-19T20:12:40.106Z,82.96
2023-02-19T20:15:03.057Z,82.65
2023-02-19T20:17:28.807Z,82.81
2023-02-19T20:19:51.795Z,83.01
2023-02-19T20:22:14.974Z,82.89
2023-02-19T20:24:38.370Z,81.83
2023-02-19T20:27:02.626Z,81.95
2023-02-19T20:29:27.993Z,82.12
2023-02-19T20:31:51.600Z,82.54
2023-02-19T20:34:15.033Z,80.44
2023-02-19T20:36:42.946Z,79.90
2023-02-19T20:39:05.880Z,79.55
2023-02-19T20:41:28.906Z,77.82
2023-02-19T20:43:51.798Z,77.59
2023-02-19T20:46:15.167Z,78.08
2023-02-19T20:48:38.618Z,78.47
2023-02-19T20:51:01.825Z,78.14
2023-02-19T20:53:25.331Z,78.37
2023-02-19T20:55:48.252Z,77.68
2023-02-19T20:58:10.915Z,78.25
2023-02-19T21:00:33.928Z,78.28
2023-02-19T21:02:57.131Z,78.39
2023-02-19T21:06:01.086Z,77.45
2023-02-19T21:08:24.019Z,77.25
2023-02-19T21:10:46.764Z,77.69
2023-02-19T21:13:09.603Z,77.22
2023-02-19T21:15:32.479Z,76.51
2023-02-19T21:17:55.502Z,76.48
2023-02-19T21:20:19.778Z,75.92
2023-02-19T21:22:42.855Z,75.91
2023-02-19T21:25:05.878Z,76.50
2023-02-19T21:27:28.504Z,75.95
2023-02-19T21:29:51.449Z,76.08
2023-02-19T21:32:15.332Z,76.58
2023-02-19T21:34:38.243Z,76.51
2023-02-19T21:37:01.062Z,76.67
2023-02-19T21:39:25.371Z,76.35
2023-02-19T21:41:49.031Z,76.47
2023-02-19T21:44:12.196Z,77.40
2023-02-19T21:46:34.903Z,76.97
2023-02-19T21:48:57.776Z,76.91
2023-02-19T21:51:23.594Z,76.46
2023-02-19T21:53:46.732Z,76.62
2023-02-19T21:56:10.368Z,76.56
2023-02-19T21:58:33.009Z,76.76
2023-02-19T22:00:56.407Z,76.85
2023-02-19T22:03:18.984Z,77.62
2023-02-19T22:05:41.792Z,78.14
2023-02-19T22:08:04.374Z,78.23
2023-02-19T22:10:27.118Z,78.02
2023-02-19T22:12:49.686Z,78.01
2023-02-19T22:15:12.380Z,78.46
2023-02-19T22:17:35.206Z,78.36
2023-02-19T22:19:58.406Z,77.55
2023-02-19T22:22:21.105Z,77.60
2023-02-19T22:24:44.013Z,77.90
2023-02-19T22:27:06.633Z,78.33
2023-02-19T22:29:29.682Z,78.50
2023-02-19T22:31:52.945Z,77.97
2023-02-19T22:34:16.435Z,77.68
2023-02-19T22:36:40.387Z,77.97
2023-02-19T22:39:04.727Z,77.13
2023-02-19T22:41:27.836Z,77.51
2023-02-19T22:43:50.651Z,76.13
2023-02-19T22:46:21.750Z,76.65
2023-02-19T22:48:45.494Z,75.73
2023-02-19T22:51:13.550Z,75.77
2023-02-19T22:53:36.673Z,75.76
2023-02-19T22:55:59.149Z,74.53
2023-02-19T22:58:21.969Z,75.43
2023-02-19T23:00:44.518Z,74.17
2023-02-19T23:03:07.182Z,74.38
2023-02-19T23:05:30.062Z,73.76
2023-02-19T23:07:53.061Z,73.28
2023-02-19T23:10:15.962Z,73.68
2023-02-19T23:12:40.864Z,73.16
2023-02-19T23:15:05.038Z,71.94
2023-02-19T23:17:27.994Z,72.54
2023-02-19T23:19:52.142Z,72.60
2023-02-19T23:22:14.957Z,71.88
2023-02-19T23:24:37.589Z,71.24
2023-02-19T23:27:01.321Z,70.47
2023-02-19T23:29:26.071Z,70.28
2023-02-19T23:31:48.910Z,68.49
2023-02-19T23:34:11.772Z,69.82
2023-02-19T23:36:40.175Z,69.98
2023-02-19T23:39:02.887Z,70.45
2023-02-19T23:41:25.574Z,70.59
2023-02-19T23:43:48.269Z,70.40
2023-02-19T23:46:15.860Z,68.47
2023-02-19T23:48:38.482Z,69.57
2023-02-19T23:51:01.442Z,69.02
2023-02-19T23:53:24.203Z,69.57
2023-02-19T23:55:46.951Z,70.32
2023-02-19T23:58:09.530Z,70.98
